CCD9577 ZHHH-LFPG
Flight info
| Callsign | CCD9577 |
|---|---|
| Flight time | N/A |
| Altitude | 26600 |
| Route | BENBI1S BENBI W56 IGMIG/K0883S0780 W128 KAMDA W129 CGO B208 ANPIG/K0898S0840 B208 NIXAL Y746 DARNO/K0896F280 P982 MEMUR/K0909F300 P982 BADIK N181 BAPUN N869 IBREN/K0898F320 N869 DURTI L29 LAFAT/N0485F320 DCT SUWGI T727 DENKO N858 SUBIX Z20 MAG Z92 ABGUS DCT ASBON DCT DINAN |
| Aircraft | B77L/H-SDE1E2E3FGHIJ2J3J4J5M1RWXY/LB1D1 |
Departure
| Time | 2026-05-08 03:08 |
|---|---|
| Airport | Wuhan Tianhe International Airport (ZHHH) |
Arrival
| Time | N/A |
|---|---|
| Airport | Charles de Gaulle International Airport (LFPG) |
| Time | Latitude | Longitude | Altitude | Speed | Heading |
|---|---|---|---|---|---|
| 2026-05-08 02:10 | 30.76981 | 114.20064 | 114 ft | 0 kts | 221° |
| 2026-05-08 03:00 | 30.76988 | 114.20071 | 114 ft | 3 kts | 221° |
| 2026-05-08 03:00 | 30.77000 | 114.20083 | 109 ft | 2 kts | 223° |
| 2026-05-08 03:01 | 30.77012 | 114.20098 | 112 ft | 3 kts | 248° |
| 2026-05-08 03:01 | 30.77015 | 114.20113 | 109 ft | 3 kts | 285° |
| 2026-05-08 03:01 | 30.77008 | 114.20131 | 110 ft | 3 kts | 309° |
| 2026-05-08 03:01 | 30.76996 | 114.20147 | 109 ft | 2 kts | 311° |
| 2026-05-08 03:02 | 30.76994 | 114.20150 | 109 ft | 0 kts | 311° |
| 2026-05-08 03:05 | 30.77034 | 114.20097 | 111 ft | 15 kts | 311° |
| 2026-05-08 03:05 | 30.77104 | 114.20004 | 110 ft | 15 kts | 311° |
| 2026-05-08 03:05 | 30.77166 | 114.19907 | 111 ft | 15 kts | 292° |
| 2026-05-08 03:05 | 30.77156 | 114.19823 | 110 ft | 10 kts | 259° |
| 2026-05-08 03:06 | 30.77165 | 114.19741 | 112 ft | 10 kts | 293° |
| 2026-05-08 03:06 | 30.77211 | 114.19682 | 111 ft | 10 kts | 341° |
| 2026-05-08 03:06 | 30.77278 | 114.19707 | 111 ft | 10 kts | 33° |
| 2026-05-08 03:06 | 30.77311 | 114.19737 | 110 ft | 0 kts | 41° |
| 2026-05-08 03:07 | 30.77368 | 114.19796 | 112 ft | 39 kts | 41° |
| 2026-05-08 03:07 | 30.77768 | 114.20200 | 111 ft | 112 kts | 41° |
| 2026-05-08 03:08 | 30.78522 | 114.20966 | 111 ft | 176 kts | 41° |
| 2026-05-08 03:08 | 30.79550 | 114.22002 | 282 ft | 204 kts | 41° |
| 2026-05-08 03:08 | 30.80610 | 114.23120 | 799 ft | 204 kts | 44° |
| 2026-05-08 03:08 | 30.81392 | 114.24476 | 1444 ft | 199 kts | 68° |
| 2026-05-08 03:09 | 30.81974 | 114.25913 | 1982 ft | 202 kts | 60° |
| 2026-05-08 03:09 | 30.82803 | 114.27331 | 2054 ft | 224 kts | 53° |
| 2026-05-08 03:09 | 30.83840 | 114.28829 | 2147 ft | 246 kts | 51° |
| 2026-05-08 03:09 | 30.84986 | 114.30288 | 2767 ft | 246 kts | 47° |
| 2026-05-08 03:10 | 30.86203 | 114.31684 | 3371 ft | 246 kts | 45° |
| 2026-05-08 03:10 | 30.87475 | 114.33045 | 3875 ft | 250 kts | 43° |
| 2026-05-08 03:10 | 30.88765 | 114.34390 | 4567 ft | 247 kts | 43° |
| 2026-05-08 03:10 | 30.90049 | 114.35713 | 5064 ft | 251 kts | 42° |
| 2026-05-08 03:11 | 30.91410 | 114.37001 | 5654 ft | 250 kts | 31° |
| 2026-05-08 03:11 | 30.93067 | 114.37505 | 5953 ft | 258 kts | 356° |
| 2026-05-08 03:11 | 30.94779 | 114.36852 | 6515 ft | 262 kts | 329° |
| 2026-05-08 03:11 | 30.96198 | 114.35459 | 6985 ft | 268 kts | 315° |
| 2026-05-08 03:12 | 30.97451 | 114.33830 | 7237 ft | 280 kts | 313° |
| 2026-05-08 03:12 | 30.98717 | 114.32093 | 7709 ft | 283 kts | 313° |
| 2026-05-08 03:12 | 31.00019 | 114.30341 | 8139 ft | 287 kts | 313° |
| 2026-05-08 03:12 | 31.01339 | 114.28589 | 8666 ft | 289 kts | 313° |
| 2026-05-08 03:13 | 31.02660 | 114.26831 | 9226 ft | 289 kts | 313° |
| 2026-05-08 03:13 | 31.03994 | 114.25063 | 9810 ft | 291 kts | 313° |
| 2026-05-08 03:13 | 31.05375 | 114.23350 | 10286 ft | 289 kts | 322° |
| 2026-05-08 03:13 | 31.07157 | 114.22284 | 10474 ft | 294 kts | 351° |
| 2026-05-08 03:14 | 31.09243 | 114.22298 | 10605 ft | 310 kts | 12° |
| 2026-05-08 03:14 | 31.11330 | 114.23076 | 10727 ft | 322 kts | 19° |
| 2026-05-08 03:14 | 31.13495 | 114.23998 | 10831 ft | 339 kts | 18° |
| 2026-05-08 03:14 | 31.15773 | 114.24934 | 10985 ft | 355 kts | 18° |
| 2026-05-08 03:15 | 31.18133 | 114.25903 | 11329 ft | 364 kts | 18° |
| 2026-05-08 03:15 | 31.20539 | 114.26889 | 11845 ft | 370 kts | 18° |
| 2026-05-08 03:15 | 31.22958 | 114.27884 | 12373 ft | 376 kts | 18° |
| 2026-05-08 03:15 | 31.25482 | 114.28930 | 12831 ft | 383 kts | 18° |
| 2026-05-08 03:16 | 31.27963 | 114.29953 | 13481 ft | 384 kts | 18° |
| 2026-05-08 03:16 | 31.30423 | 114.30963 | 13921 ft | 391 kts | 19° |
| 2026-05-08 03:16 | 31.32999 | 114.32022 | 14398 ft | 395 kts | 18° |
| 2026-05-08 03:16 | 31.35621 | 114.33066 | 14859 ft | 397 kts | 14° |
| 2026-05-08 03:17 | 31.38359 | 114.33573 | 15086 ft | 401 kts | 359° |
| 2026-05-08 03:17 | 31.41164 | 114.33526 | 15491 ft | 405 kts | 357° |
| 2026-05-08 03:17 | 31.43988 | 114.33492 | 16023 ft | 407 kts | 358° |
| 2026-05-08 03:17 | 31.46829 | 114.33516 | 16542 ft | 410 kts | 359° |
| 2026-05-08 03:18 | 31.49689 | 114.33570 | 16986 ft | 414 kts | 359° |
| 2026-05-08 03:18 | 31.52596 | 114.33645 | 17439 ft | 418 kts | 359° |
| 2026-05-08 03:18 | 31.55519 | 114.33729 | 17903 ft | 422 kts | 359° |
| 2026-05-08 03:18 | 31.58464 | 114.33818 | 18353 ft | 425 kts | 359° |
| 2026-05-08 03:19 | 31.61441 | 114.33909 | 18789 ft | 428 kts | 359° |
| 2026-05-08 03:19 | 31.64429 | 114.33996 | 19207 ft | 430 kts | 359° |
| 2026-05-08 03:19 | 31.67427 | 114.34082 | 19626 ft | 432 kts | 359° |
| 2026-05-08 03:19 | 31.70444 | 114.34179 | 20069 ft | 435 kts | 359° |
| 2026-05-08 03:20 | 31.73481 | 114.34265 | 20479 ft | 438 kts | 359° |
| 2026-05-08 03:20 | 31.76538 | 114.34349 | 20873 ft | 441 kts | 359° |
| 2026-05-08 03:20 | 31.79616 | 114.34439 | 21240 ft | 444 kts | 359° |
| 2026-05-08 03:20 | 31.82666 | 114.34530 | 21623 ft | 446 kts | 358° |
| 2026-05-08 03:21 | 31.85814 | 114.34627 | 22000 ft | 448 kts | 358° |
| 2026-05-08 03:21 | 31.88905 | 114.34723 | 22349 ft | 451 kts | 358° |
| 2026-05-08 03:21 | 31.92052 | 114.34825 | 22696 ft | 454 kts | 358° |
| 2026-05-08 03:21 | 31.95208 | 114.34927 | 23016 ft | 457 kts | 358° |
| 2026-05-08 03:22 | 31.98409 | 114.35029 | 23358 ft | 460 kts | 357° |
| 2026-05-08 03:22 | 32.01625 | 114.35131 | 23695 ft | 463 kts | 357° |
| 2026-05-08 03:22 | 32.04842 | 114.35234 | 23975 ft | 465 kts | 357° |
| 2026-05-08 03:22 | 32.08091 | 114.35337 | 24280 ft | 467 kts | 357° |
| 2026-05-08 03:23 | 32.11339 | 114.35440 | 24587 ft | 468 kts | 357° |
| 2026-05-08 03:23 | 32.14601 | 114.35544 | 24902 ft | 469 kts | 357° |
| 2026-05-08 03:23 | 32.17874 | 114.35650 | 25202 ft | 470 kts | 357° |
| 2026-05-08 03:23 | 32.21147 | 114.35755 | 25518 ft | 471 kts | 357° |
| 2026-05-08 03:24 | 32.24436 | 114.35859 | 25834 ft | 472 kts | 357° |
| 2026-05-08 03:24 | 32.27732 | 114.35984 | 26134 ft | 475 kts | 358° |
| 2026-05-08 03:24 | 32.31043 | 114.36239 | 26415 ft | 478 kts | 360° |
| 2026-05-08 03:24 | 32.34352 | 114.36567 | 26700 ft | 479 kts | 0° |
| 2026-05-08 03:25 | 32.37695 | 114.36913 | 26795 ft | 484 kts | 0° |
| 2026-05-08 03:25 | 32.41015 | 114.37243 | 26835 ft | 483 kts | 360° |
| 2026-05-08 03:25 | 32.44397 | 114.37565 | 26838 ft | 480 kts | 359° |
| 2026-05-08 03:25 | 32.47717 | 114.37869 | 26847 ft | 478 kts | 359° |
| 2026-05-08 03:26 | 32.50960 | 114.38158 | 26851 ft | 477 kts | 359° |
| 2026-05-08 03:26 | 32.54344 | 114.38457 | 26852 ft | 477 kts | 359° |
| 2026-05-08 03:26 | 32.57649 | 114.38751 | 26854 ft | 477 kts | 359° |
| 2026-05-08 03:26 | 32.60963 | 114.39047 | 26848 ft | 477 kts | 359° |
| 2026-05-08 03:27 | 32.64219 | 114.39338 | 26857 ft | 477 kts | 359° |
| 2026-05-08 03:27 | 32.67581 | 114.39643 | 26858 ft | 477 kts | 359° |
| 2026-05-08 03:27 | 32.70846 | 114.39947 | 26859 ft | 478 kts | 359° |
| 2026-05-08 03:27 | 32.74160 | 114.40258 | 26860 ft | 478 kts | 359° |
| 2026-05-08 03:28 | 32.77495 | 114.40572 | 26852 ft | 479 kts | 359° |
| 2026-05-08 03:28 | 32.80819 | 114.40886 | 26853 ft | 479 kts | 359° |
| 2026-05-08 03:28 | 32.84152 | 114.41200 | 26856 ft | 479 kts | 359° |
| 2026-05-08 03:28 | 32.87480 | 114.41513 | 26861 ft | 480 kts | 359° |
| 2026-05-08 03:29 | 32.90801 | 114.41825 | 26859 ft | 480 kts | 359° |
| 2026-05-08 03:29 | 32.94136 | 114.42138 | 26852 ft | 480 kts | 359° |
| 2026-05-08 03:29 | 32.97457 | 114.42450 | 26855 ft | 479 kts | 359° |
| 2026-05-08 03:29 | 33.00789 | 114.42764 | 26871 ft | 479 kts | 359° |
| 2026-05-08 03:30 | 33.07428 | 114.43390 | 26867 ft | 478 kts | 359° |
| 2026-05-08 03:30 | 33.14033 | 114.44012 | 26858 ft | 479 kts | 359° |
| 2026-05-08 03:31 | 33.20668 | 114.44626 | 26863 ft | 474 kts | 356° |
| 2026-05-08 03:31 | 33.26764 | 114.42818 | 26869 ft | 445 kts | 320° |
| 2026-05-08 03:32 | 33.29086 | 114.40424 | 26876 ft | 440 kts | 309° |
| 2026-05-08 03:32 | 33.31006 | 114.37596 | 26874 ft | 438 kts | 300° |
| 2026-05-08 03:32 | 33.32401 | 114.34376 | 26878 ft | 436 kts | 287° |
| 2026-05-08 03:32 | 33.33334 | 114.30907 | 27108 ft | 438 kts | 286° |
| 2026-05-08 03:33 | 33.34334 | 114.27450 | 26979 ft | 442 kts | 289° |
| 2026-05-08 03:33 | 33.35733 | 114.24195 | 26874 ft | 441 kts | 304° |
| 2026-05-08 03:33 | 33.37891 | 114.21573 | 26892 ft | 446 kts | 317° |
| 2026-05-08 03:33 | 33.40451 | 114.19494 | 26866 ft | 454 kts | 327° |
| 2026-05-08 03:34 | 33.43420 | 114.18008 | 26858 ft | 462 kts | 339° |
| 2026-05-08 03:34 | 33.46508 | 114.17078 | 26877 ft | 464 kts | 341° |
| 2026-05-08 03:34 | 33.49655 | 114.16183 | 26876 ft | 466 kts | 341° |
| 2026-05-08 03:34 | 33.52815 | 114.15275 | 26879 ft | 467 kts | 341° |
| 2026-05-08 03:35 | 33.55969 | 114.14349 | 26874 ft | 468 kts | 341° |
| 2026-05-08 03:35 | 33.59128 | 114.13400 | 26878 ft | 468 kts | 340° |
| 2026-05-08 03:35 | 33.62284 | 114.12435 | 26876 ft | 468 kts | 340° |
| 2026-05-08 03:35 | 33.65224 | 114.11527 | 26873 ft | 468 kts | 340° |
| 2026-05-08 03:36 | 33.68376 | 114.10546 | 26872 ft | 467 kts | 340° |
| 2026-05-08 03:36 | 33.71537 | 114.09559 | 26869 ft | 467 kts | 340° |
| 2026-05-08 03:36 | 33.74679 | 114.08578 | 26871 ft | 466 kts | 340° |
| 2026-05-08 03:36 | 33.77811 | 114.07600 | 26873 ft | 465 kts | 340° |
| 2026-05-08 03:37 | 33.80953 | 114.06618 | 26874 ft | 465 kts | 340° |
| 2026-05-08 03:37 | 33.84081 | 114.05641 | 26877 ft | 464 kts | 340° |
| 2026-05-08 03:37 | 33.87203 | 114.04665 | 26881 ft | 464 kts | 340° |
| 2026-05-08 03:37 | 33.90326 | 114.03689 | 26882 ft | 464 kts | 340° |
| 2026-05-08 03:38 | 33.93458 | 114.02708 | 26884 ft | 464 kts | 340° |
| 2026-05-08 03:38 | 33.96574 | 114.01731 | 26885 ft | 464 kts | 340° |
| 2026-05-08 03:38 | 33.99707 | 114.00749 | 26877 ft | 464 kts | 340° |
| 2026-05-08 03:38 | 34.02789 | 113.99782 | 26881 ft | 464 kts | 340° |
| 2026-05-08 03:39 | 34.05910 | 113.98800 | 26879 ft | 464 kts | 340° |
| 2026-05-08 03:39 | 34.09051 | 113.97811 | 26877 ft | 465 kts | 340° |
| 2026-05-08 03:39 | 34.12173 | 113.96830 | 26879 ft | 465 kts | 340° |
| 2026-05-08 03:39 | 34.15318 | 113.95840 | 26879 ft | 465 kts | 340° |
| 2026-05-08 03:40 | 34.18442 | 113.94859 | 26882 ft | 464 kts | 340° |
| 2026-05-08 03:40 | 34.21571 | 113.93873 | 26875 ft | 464 kts | 340° |
| 2026-05-08 03:40 | 34.24693 | 113.92888 | 26880 ft | 463 kts | 340° |
| 2026-05-08 03:40 | 34.27805 | 113.91903 | 26878 ft | 462 kts | 340° |
| 2026-05-08 03:41 | 34.30911 | 113.90921 | 26881 ft | 461 kts | 340° |
| 2026-05-08 03:41 | 34.33997 | 113.89946 | 26874 ft | 460 kts | 341° |
| 2026-05-08 03:41 | 34.37098 | 113.88966 | 26864 ft | 458 kts | 341° |
| 2026-05-08 03:41 | 34.40176 | 113.87991 | 26861 ft | 457 kts | 340° |
| 2026-05-08 03:42 | 34.43254 | 113.87015 | 26861 ft | 456 kts | 340° |
| 2026-05-08 03:42 | 34.46322 | 113.86040 | 26862 ft | 455 kts | 340° |
| 2026-05-08 03:42 | 34.49391 | 113.85066 | 26869 ft | 455 kts | 340° |
| 2026-05-08 03:42 | 34.52454 | 113.84093 | 26872 ft | 455 kts | 340° |
| 2026-05-08 03:43 | 34.55502 | 113.83103 | 26870 ft | 455 kts | 340° |
| 2026-05-08 03:43 | 34.58553 | 113.82094 | 26873 ft | 455 kts | 340° |
| 2026-05-08 03:43 | 34.61575 | 113.81090 | 26870 ft | 456 kts | 340° |
| 2026-05-08 03:43 | 34.64638 | 113.80074 | 26864 ft | 456 kts | 340° |
| 2026-05-08 03:44 | 34.67699 | 113.79060 | 26872 ft | 456 kts | 340° |
| 2026-05-08 03:44 | 34.70764 | 113.78046 | 26866 ft | 457 kts | 340° |
| 2026-05-08 03:44 | 34.73830 | 113.77032 | 26871 ft | 457 kts | 340° |
| 2026-05-08 03:44 | 34.76904 | 113.76015 | 26863 ft | 457 kts | 340° |
| 2026-05-08 03:45 | 34.79980 | 113.74996 | 26861 ft | 458 kts | 340° |
| 2026-05-08 03:45 | 34.83055 | 113.73978 | 26861 ft | 458 kts | 340° |
| 2026-05-08 03:45 | 34.86122 | 113.72948 | 26860 ft | 457 kts | 339° |
| 2026-05-08 03:45 | 34.89134 | 113.71721 | 26858 ft | 454 kts | 335° |
| 2026-05-08 03:46 | 34.92103 | 113.70394 | 26862 ft | 454 kts | 335° |
| 2026-05-08 03:46 | 34.95066 | 113.69070 | 26865 ft | 454 kts | 335° |
| 2026-05-08 03:46 | 34.98031 | 113.67751 | 26860 ft | 454 kts | 335° |
| 2026-05-08 03:46 | 35.00998 | 113.66436 | 26860 ft | 454 kts | 335° |
| 2026-05-08 03:47 | 35.03981 | 113.65118 | 26857 ft | 454 kts | 335° |
| 2026-05-08 03:47 | 35.06947 | 113.63810 | 26860 ft | 454 kts | 335° |
| 2026-05-08 03:47 | 35.09877 | 113.62517 | 26861 ft | 453 kts | 335° |
| 2026-05-08 03:47 | 35.12876 | 113.61190 | 26850 ft | 453 kts | 335° |
| 2026-05-08 03:48 | 35.15809 | 113.59891 | 26852 ft | 453 kts | 335° |
| 2026-05-08 03:48 | 35.18769 | 113.58580 | 26848 ft | 453 kts | 335° |
| 2026-05-08 03:48 | 35.21728 | 113.57271 | 26857 ft | 452 kts | 335° |
| 2026-05-08 03:48 | 35.24688 | 113.55958 | 26850 ft | 452 kts | 335° |
| 2026-05-08 03:49 | 35.27648 | 113.54643 | 26845 ft | 452 kts | 335° |
| 2026-05-08 03:49 | 35.30607 | 113.53331 | 26845 ft | 452 kts | 335° |
| 2026-05-08 03:49 | 35.33562 | 113.52017 | 26852 ft | 452 kts | 335° |
| 2026-05-08 03:49 | 35.36518 | 113.50700 | 26845 ft | 453 kts | 335° |
| 2026-05-08 03:50 | 35.39484 | 113.49380 | 26848 ft | 453 kts | 335° |
| 2026-05-08 03:50 | 35.42448 | 113.48061 | 26845 ft | 453 kts | 335° |
| 2026-05-08 03:50 | 35.44460 | 113.47165 | 26847 ft | 453 kts | 335° |
| 2026-05-08 03:50 | 35.48396 | 113.45425 | 26855 ft | 454 kts | 336° |
| 2026-05-08 03:51 | 35.50370 | 113.44559 | 26855 ft | 454 kts | 336° |
| 2026-05-08 03:51 | 35.53345 | 113.43256 | 26844 ft | 455 kts | 336° |
| 2026-05-08 03:51 | 35.56323 | 113.41949 | 26849 ft | 454 kts | 336° |
| 2026-05-08 03:51 | 35.59297 | 113.40641 | 26852 ft | 454 kts | 336° |
| 2026-05-08 03:52 | 35.62277 | 113.39326 | 26842 ft | 454 kts | 335° |
| 2026-05-08 03:52 | 35.65239 | 113.38005 | 26840 ft | 454 kts | 335° |
| 2026-05-08 03:52 | 35.68214 | 113.36669 | 26854 ft | 454 kts | 335° |
| 2026-05-08 03:52 | 35.71171 | 113.35339 | 26850 ft | 454 kts | 335° |
| 2026-05-08 03:53 | 35.74142 | 113.34004 | 26844 ft | 454 kts | 335° |
| 2026-05-08 03:53 | 35.77118 | 113.32666 | 26842 ft | 455 kts | 335° |
| 2026-05-08 03:53 | 35.80087 | 113.31331 | 26841 ft | 455 kts | 335° |
| 2026-05-08 03:53 | 35.83060 | 113.29995 | 26841 ft | 454 kts | 335° |
| 2026-05-08 03:54 | 35.86044 | 113.28654 | 26842 ft | 454 kts | 335° |
| 2026-05-08 03:54 | 35.88975 | 113.27348 | 26849 ft | 454 kts | 335° |
| 2026-05-08 03:54 | 35.91984 | 113.26011 | 26846 ft | 454 kts | 335° |
| 2026-05-08 03:54 | 35.94955 | 113.24691 | 26842 ft | 454 kts | 335° |
| 2026-05-08 03:55 | 35.97878 | 113.23390 | 26837 ft | 454 kts | 335° |
| 2026-05-08 03:55 | 36.00861 | 113.22061 | 26840 ft | 453 kts | 335° |
| 2026-05-08 03:55 | 36.03827 | 113.20738 | 26828 ft | 453 kts | 335° |
| 2026-05-08 03:55 | 36.06792 | 113.19413 | 26841 ft | 452 kts | 335° |
| 2026-05-08 03:56 | 36.09752 | 113.18090 | 26836 ft | 452 kts | 335° |
| 2026-05-08 03:56 | 36.12717 | 113.16761 | 26830 ft | 452 kts | 335° |
| 2026-05-08 03:56 | 36.15670 | 113.15439 | 26829 ft | 451 kts | 335° |
| 2026-05-08 03:56 | 36.18617 | 113.14117 | 26826 ft | 451 kts | 335° |
| 2026-05-08 03:57 | 36.21569 | 113.12793 | 26824 ft | 451 kts | 335° |
| 2026-05-08 03:57 | 36.24531 | 113.11492 | 26820 ft | 451 kts | 337° |
| 2026-05-08 03:57 | 36.27551 | 113.10381 | 26830 ft | 453 kts | 340° |
| 2026-05-08 03:57 | 36.30606 | 113.09400 | 26829 ft | 454 kts | 341° |
| 2026-05-08 03:58 | 36.33676 | 113.08460 | 26818 ft | 454 kts | 341° |
| 2026-05-08 03:58 | 36.36746 | 113.07518 | 26816 ft | 454 kts | 341° |
| 2026-05-08 03:58 | 36.39809 | 113.06561 | 26812 ft | 454 kts | 341° |
| 2026-05-08 03:58 | 36.42862 | 113.05589 | 26813 ft | 454 kts | 340° |
| 2026-05-08 03:59 | 36.45883 | 113.04615 | 26818 ft | 453 kts | 340° |
| 2026-05-08 03:59 | 36.48932 | 113.03626 | 26815 ft | 453 kts | 340° |
| 2026-05-08 03:59 | 36.51984 | 113.02631 | 26807 ft | 453 kts | 340° |
| 2026-05-08 03:59 | 36.55023 | 113.01640 | 26811 ft | 452 kts | 340° |
| 2026-05-08 04:00 | 36.58068 | 113.00646 | 26816 ft | 451 kts | 340° |
| 2026-05-08 04:00 | 36.61104 | 112.99655 | 26811 ft | 451 kts | 340° |
| 2026-05-08 04:00 | 36.64139 | 112.98663 | 26809 ft | 451 kts | 340° |
| 2026-05-08 04:00 | 36.67177 | 112.97671 | 26803 ft | 450 kts | 340° |
| 2026-05-08 04:01 | 36.70199 | 112.96683 | 26800 ft | 449 kts | 340° |
| 2026-05-08 04:01 | 36.73217 | 112.95695 | 26801 ft | 448 kts | 340° |
| 2026-05-08 04:01 | 36.76229 | 112.94708 | 26803 ft | 448 kts | 340° |
| 2026-05-08 04:01 | 36.79243 | 112.93720 | 26808 ft | 447 kts | 340° |
| 2026-05-08 04:02 | 36.82251 | 112.92727 | 26802 ft | 447 kts | 340° |
| 2026-05-08 04:02 | 36.85250 | 112.91730 | 26801 ft | 446 kts | 340° |
| 2026-05-08 04:02 | 36.88240 | 112.90732 | 26803 ft | 445 kts | 340° |
| 2026-05-08 04:02 | 36.91231 | 112.89734 | 26791 ft | 445 kts | 340° |
| 2026-05-08 04:03 | 36.94224 | 112.88735 | 26789 ft | 444 kts | 340° |
| 2026-05-08 04:03 | 37.00190 | 112.86743 | 26790 ft | 443 kts | 340° |
| 2026-05-08 04:03 | 37.03164 | 112.85749 | 26801 ft | 443 kts | 340° |
| 2026-05-08 04:04 | 37.06144 | 112.84752 | 26796 ft | 443 kts | 340° |
| 2026-05-08 04:04 | 37.09097 | 112.83773 | 26789 ft | 443 kts | 340° |
| 2026-05-08 04:04 | 37.12066 | 112.82794 | 26792 ft | 443 kts | 340° |
| 2026-05-08 04:04 | 37.15033 | 112.81818 | 26792 ft | 443 kts | 340° |
| 2026-05-08 04:05 | 37.18027 | 112.80831 | 26794 ft | 442 kts | 340° |
| 2026-05-08 04:05 | 37.21006 | 112.79847 | 26780 ft | 442 kts | 340° |
| 2026-05-08 04:05 | 37.23987 | 112.78861 | 26792 ft | 442 kts | 340° |
| 2026-05-08 04:05 | 37.26952 | 112.77878 | 26779 ft | 442 kts | 340° |